Flight Track Log - Related Links

Times and Time Zones

All times are in EDT time to prevent confusion due to time zone crossing. See the TCF3493 flight status page for this flight to view local times or setup timezone preferences in your user account.

Time Position Orientation Groundspeed Altitude Reporting Facility
EDT Latitude Longitude Course Direction KTS MPH feet Rate Location/Type
Sun 08:27:12 PM 41.8267 -86.3922 309° West 279 321 8,000  Level Chicago Center
Sun 08:28:00 PM 41.8419 -86.4419 323° Northwest  Level FlightAware Approximate
Sun 08:28:14 PM 41.8858 -86.4919 309° West 282 325 9,700  Level Chicago Center
Sun 08:29:00 PM 41.8733 -86.4894 308° West  Level FlightAware Approximate
Sun 08:29:16 PM 41.9400 -86.5811 309° West 305 351 10,000  Level Chicago Center
Sun 08:30:00 PM 41.9164 -86.5625 308° West  Level FlightAware Approximate
Sun 08:30:18 PM 41.9944 -86.6717 309° West 310 357 10,000  Level Chicago Center
Sun 08:31:00 PM 41.9594 -86.6358 308° West  Level FlightAware Approximate
Sun 08:31:20 PM 42.0525 -86.7683 309° West 309 356 10,000  Level Chicago Center
Sun 08:32:22 PM 42.1072 -86.8592 309° West 309 356 10,000 -145 Level Chicago Center
Sun 08:33:24 PM 42.1547 -86.9533 304° West 309 356 9,700 -1,016 Descending Chicago Center
Sun 08:34:26 PM 42.1611 -87.0717 274° West 278 320 7,900 -823 Descending Chicago Center
Sun 08:35:28 PM 42.1697 -87.1750 276° West 278 320 8,000 48 Climbing Chicago Center
Sun 08:36:30 PM 42.1758 -87.2778 275° West 278 320 8,000  Level Chicago Center
Sun 08:37:33 PM 42.1839 -87.3906 276° West 279 321 8,000 -432 Level Chicago Center
Sun 08:38:35 PM 42.1844 -87.4928 270° West 276 318 7,100 -484 Descending Chicago Center
Sun 08:39:37 PM 42.1822 -87.6025 268° West 275 316 7,000 -48 Descending Chicago Center
Sun 08:40:39 PM 42.1700 -87.7033 261° West 281 323 7,000  Level Chicago Center
Sun 08:41:41 PM 42.1400 -87.8056 248° West 276 318 7,000  Level Chicago Center
Sun 08:42:43 PM 42.1119 -87.8989 248° West 273 314 7,000  Level Chicago Center
Sun 08:43:45 PM 42.0842 -87.9922 248° West 249 287 7,000 -581 Level Chicago Center
Sun 08:44:47 PM 42.0822 -88.0761 268° West 229 264 5,800 -1,258 Descending Chicago Center
Sun 08:45:49 PM 42.0819 -88.1669 270° West 229 264 4,400 -1,344 Descending Chicago Center
Sun 08:46:52 PM 42.0372 -88.1958 206° Southwest 222 255 3,000 -672 Descending Chicago Center
Sun 08:47:54 PM 42.0092 -88.1206 117° Southeast 209 241 3,000 -194 Level Chicago Center
Sun 08:48:56 PM 42.0008 -88.0567 100° East 177 204 2,600 -629 Descending Chicago Center
Sun 08:49:58 PM 42.0019 -87.9958 89° East 153 176 1,700 -726 Descending Chicago Center
Sun 08:51:00 PM 42.0014 -87.9539 91° East 120 138 1,100 -435 Descending Chicago Center
Sun 08:52:02 PM 42.0019 -87.9156 89° East 117 135 800 -290 Descending Chicago Center

Login

Don't have an account? Register now (free) for customized features, flight alerts, and more!